Time;durP1;ratioP1;P1;durP2;ratioP2;P2;SDS_P1;SDS_P2;PMS_P1;PMS_P2;Temp;Humidity;BMP_temperature;BMP_pressure;BME280_temperature;BME280_humidity;BME280_pressure;Samples;Min_cycle;Max_cycle;Signal;HPM_P1;HPM_P2
2023/09/06 00:02:07;;;;;;;;;;;;;;;23.85;63.25;101631.31;5065983;28;19916;-82
2023/09/06 00:04:32;;;;;;;;;;;;;;;23.88;63.06;101627.81;5047169;28;20006;-83
2023/09/06 00:06:58;;;;;;;;;;;;;;;23.90;62.75;101628.72;5070532;28;20372;-84
2023/09/06 00:09:23;;;;;;;;;;;;;;;23.86;62.84;101635.78;5051976;28;19970;-84
2023/09/06 00:11:48;;;;;;;;;;;;;;;23.90;62.90;101631.38;5058508;28;19928;-83
2023/09/06 00:14:15;;;;;;;;;;;;;;;23.95;62.54;101629.66;5065679;28;20389;-84
2023/09/06 00:16:41;;;;;;;;;;;;;;;23.91;62.62;101630.50;5059686;28;20037;-81
2023/09/06 00:19:06;;;;;;;;;;;;;;;23.90;62.50;101626.94;5062306;28;20019;-84
2023/09/06 00:21:44;;;;;;;;;;;;;;;23.91;62.58;101635.84;5051993;28;19993;-83
2023/09/06 00:24:10;;;;;;;;;;;;;;;23.86;62.43;101635.78;5062288;28;19917;-84
2023/09/06 00:26:35;;;;;;;;;;;;;;;23.93;62.39;101624.28;5053691;28;19923;-84
2023/09/06 00:29:01;;;;;;;;;;;;;;;23.91;62.53;101626.03;5063823;28;19917;-83
2023/09/06 00:31:28;;;;;;;;;;;;;;;23.89;62.40;101626.91;5047515;28;20401;-83
2023/09/06 00:33:53;;;;;;;;;;;;;;;23.89;62.26;101625.13;5061300;28;19978;-84
2023/09/06 00:36:19;;;;;;;;;;;;;;;23.88;62.31;101626.03;5050037;28;20003;-85
2023/09/06 00:38:44;;;;;;;;;;;;;;;23.87;62.38;101626.88;5039432;28;20443;-85
2023/09/06 00:41:10;;;;;;;;;;;;;;;23.95;62.13;101619.00;5045743;28;19920;-85
2023/09/06 00:43:36;;;;;;;;;;;;;;;23.96;62.08;101619.00;5062382;28;19916;-85
2023/09/06 00:46:07;;;;;;;;;;;;;;;23.89;62.31;101624.25;5060645;28;19917;-85
2023/09/06 00:48:32;;;;;;;;;;;;;;;23.89;62.29;101625.13;5074288;28;19921;-84
2023/09/06 00:50:58;;;;;;;;;;;;;;;23.87;62.19;101626.00;5062528;28;20439;-84
2023/09/06 00:53:24;;;;;;;;;;;;;;;23.84;62.26;101618.84;5057957;28;20354;-86
2023/09/06 00:55:50;;;;;;;;;;;;;;;23.87;62.09;101615.31;5056825;28;20461;-84
2023/09/06 00:58:16;;;;;;;;;;;;;;;23.82;62.09;101619.72;5050695;28;19936;-84
2023/09/06 01:00:42;;;;;;;;;;;;;;;23.88;62.09;101622.47;5050898;28;19917;-85
2023/09/06 01:03:08;;;;;;;;;;;;;;;23.90;61.97;101610.94;5051367;28;19948;-84
2023/09/06 01:05:36;;;;;;;;;;;;;;;23.91;61.89;101607.38;5062951;28;20313;-84
2023/09/06 01:08:03;;;;;;;;;;;;;;;23.89;61.76;101602.91;5059932;28;19967;-84
2023/09/06 01:10:29;;;;;;;;;;;;;;;23.90;61.76;101597.59;5050942;28;19920;-83
2023/09/06 01:12:55;;;;;;;;;;;;;;;23.90;61.70;101594.94;5054849;28;19921;-83
2023/09/06 01:15:21;;;;;;;;;;;;;;;23.85;62.01;101593.94;5059739;28;19912;-83
2023/09/06 01:17:46;;;;;;;;;;;;;;;23.82;61.98;101587.72;5057432;28;19970;-83
2023/09/06 01:20:17;;;;;;;;;;;;;;;23.91;61.70;101587.81;5057325;28;19923;-82
2023/09/06 01:22:52;;;;;;;;;;;;;;;23.89;61.60;101592.22;5071315;28;20061;-84
2023/09/06 01:25:18;;;;;;;;;;;;;;;23.92;61.62;101584.28;5045305;28;19916;-83
2023/09/06 01:27:44;;;;;;;;;;;;;;;23.90;61.58;101589.59;5056497;28;19913;-83
2023/09/06 01:30:10;;;;;;;;;;;;;;;23.84;61.51;101584.19;5047454;28;20428;-83
2023/09/06 01:32:36;;;;;;;;;;;;;;;23.75;61.72;101595.59;5051164;28;20388;-83
2023/09/06 01:35:01;;;;;;;;;;;;;;;23.75;61.64;101594.72;5044820;28;19916;-83
2023/09/06 01:37:27;;;;;;;;;;;;;;;23.70;62.03;101593.72;5032888;28;20456;-84
2023/09/06 01:39:52;;;;;;;;;;;;;;;23.80;61.54;101592.13;5047059;28;19927;-82
2023/09/06 01:42:22;;;;;;;;;;;;;;;23.76;61.53;101594.72;5051111;28;20352;-82
2023/09/06 01:44:48;;;;;;;;;;;;;;;23.76;61.70;101592.06;5037919;28;19913;-83
2023/09/06 01:47:13;;;;;;;;;;;;;;;23.77;61.61;101590.31;5051076;28;20019;-85
2023/09/06 01:49:38;;;;;;;;;;;;;;;23.73;61.83;101588.44;5049365;28;20537;-85
2023/09/06 01:52:05;;;;;;;;;;;;;;;23.76;61.68;101583.19;5055841;28;19916;-82
2023/09/06 01:54:30;;;;;;;;;;;;;;;23.78;61.50;101584.09;5055888;28;19913;-83
2023/09/06 01:56:56;;;;;;;;;;;;;;;23.74;61.61;101579.56;5051543;28;19983;-83
2023/09/06 01:59:21;;;;;;;;;;;;;;;23.70;61.59;101575.06;5059097;28;19917;-83
2023/09/06 02:01:53;;;;;;;;;;;;;;;23.77;61.46;101569.88;5055529;28;19917;-84
2023/09/06 02:04:18;;;;;;;;;;;;;;;23.69;61.53;101587.50;5065912;28;20290;-83
2023/09/06 02:06:44;;;;;;;;;;;;;;;23.72;61.41;101579.53;5064370;28;19913;-83
2023/09/06 02:09:09;;;;;;;;;;;;;;;23.69;61.52;101579.50;5064570;28;19923;-82
2023/09/06 02:11:35;;;;;;;;;;;;;;;23.68;61.47;101584.81;5054870;28;19913;-84
2023/09/06 02:14:00;;;;;;;;;;;;;;;23.75;61.30;101581.38;5072657;28;19917;-82
2023/09/06 02:16:26;;;;;;;;;;;;;;;23.69;61.40;101584.84;5058772;28;20422;-83
2023/09/06 02:18:52;;;;;;;;;;;;;;;23.72;61.58;101591.97;5054592;28;20007;-82
2023/09/06 02:21:17;;;;;;;;;;;;;;;23.69;61.41;101589.28;5066833;28;20036;-83
2023/09/06 02:23:43;;;;;;;;;;;;;;;23.77;61.36;101579.66;5045887;28;20431;-84
2023/09/06 02:26:08;;;;;;;;;;;;;;;23.79;61.17;101583.19;5073549;28;20396;-82
2023/09/06 02:28:34;;;;;;;;;;;;;;;23.78;61.28;101592.09;5060877;28;19978;-83
2023/09/06 02:30:59;;;;;;;;;;;;;;;23.75;61.22;101598.25;5070138;28;19947;-83
2023/09/06 02:33:28;;;;;;;;;;;;;;;23.80;61.03;101598.34;5059762;28;19935;-83
2023/09/06 02:35:53;;;;;;;;;;;;;;;23.75;61.05;101600.03;5044418;28;19916;-83
2023/09/06 02:38:19;;;;;;;;;;;;;;;23.74;61.37;101598.22;5064624;28;19947;-83
2023/09/06 02:40:44;;;;;;;;;;;;;;;23.75;61.31;101608.94;5063315;28;19924;-84
2023/09/06 02:43:13;;;;;;;;;;;;;;;23.72;61.21;101610.66;5058807;28;20450;-83
2023/09/06 02:45:39;;;;;;;;;;;;;;;23.72;61.33;101608.88;5061335;28;19921;-83
2023/09/06 02:48:12;;;;;;;;;;;;;;;23.77;60.94;101615.22;5049358;28;19925;-84
2023/09/06 02:50:39;;;;;;;;;;;;;;;23.82;60.85;101604.59;5051198;28;19924;-83
2023/09/06 02:53:15;;;;;;;;;;;;;;;23.75;61.00;101614.25;5051314;28;19920;-83
2023/09/06 02:55:40;;;;;;;;;;;;;;;23.75;60.94;101614.25;5050821;28;19932;-83
2023/09/06 02:58:07;;;;;;;;;;;;;;;23.68;61.04;101624.81;5068707;28;19924;-83
2023/09/06 03:00:35;;;;;;;;;;;;;;;23.67;61.22;101618.59;5048937;28;19921;-84
2023/09/06 03:03:06;;;;;;;;;;;;;;;23.77;60.92;101619.66;5052794;28;19920;-84
2023/09/06 03:05:41;;;;;;;;;;;;;;;23.74;60.91;101624.91;5053037;28;19951;-84
2023/09/06 03:08:06;;;;;;;;;;;;;;;23.77;60.77;101633.00;5051432;28;19931;-84
2023/09/06 03:10:33;;;;;;;;;;;;;;;23.66;61.01;101626.56;5075661;28;19913;-84
2023/09/06 03:12:58;;;;;;;;;;;;;;;23.74;60.85;101622.25;5073174;28;20400;-84
2023/09/06 03:15:28;;;;;;;;;;;;;;;23.70;61.02;101636.41;5048555;28;19916;-83
2023/09/06 03:17:54;;;;;;;;;;;;;;;23.78;60.66;101634.78;5037025;28;19952;-82
2023/09/06 03:20:31;;;;;;;;;;;;;;;23.69;60.90;101631.97;5038219;28;19967;-82
2023/09/06 03:22:58;;;;;;;;;;;;;;;23.67;61.13;101625.72;5071413;28;20401;-83
2023/09/06 03:25:26;;;;;;;;;;;;;;;23.69;60.88;101632.84;5034206;28;19924;-83
2023/09/06 03:27:53;;;;;;;;;;;;;;;23.72;60.90;101634.66;5045165;28;19920;-83
2023/09/06 03:30:19;;;;;;;;;;;;;;;23.71;60.83;101630.22;5039421;28;20072;-82
2023/09/06 03:32:48;;;;;;;;;;;;;;;23.81;60.68;101633.91;5035631;28;21220;-84
2023/09/06 03:35:16;;;;;;;;;;;;;;;23.75;60.68;101632.94;5045638;28;19939;-81
2023/09/06 03:37:41;;;;;;;;;;;;;;;23.73;60.89;101634.69;5038863;28;19917;-83
2023/09/06 03:42:53;;;;;;;;;;;;;;;23.78;60.81;101637.44;5044941;28;19927;-84
2023/09/06 03:45:21;;;;;;;;;;;;;;;23.77;60.82;101654.34;5041757;28;19921;-84
2023/09/06 03:47:46;;;;;;;;;;;;;;;23.80;60.59;101650.81;5082146;28;20294;-83
2023/09/06 03:50:12;;;;;;;;;;;;;;;23.68;60.70;101654.16;5067095;28;19920;-84
2023/09/06 03:52:39;;;;;;;;;;;;;;;23.76;60.82;101648.06;5046061;28;19920;-82
2023/09/06 03:55:05;;;;;;;;;;;;;;;23.66;61.05;101650.56;5057219;28;20443;-84
2023/09/06 03:57:31;;;;;;;;;;;;;;;23.68;61.08;101648.81;5050745;28;19938;-82
2023/09/06 03:59:58;;;;;;;;;;;;;;;23.62;61.18;101656.72;5063675;28;19916;-82
2023/09/06 04:02:27;;;;;;;;;;;;;;;23.63;61.04;101643.44;5075571;28;19924;-83
2023/09/06 04:04:52;;;;;;;;;;;;;;;23.68;60.80;101643.47;5077260;28;20381;-85
2023/09/06 04:07:18;;;;;;;;;;;;;;;23.75;60.79;101651.59;5071179;28;20010;-87
2023/09/06 04:09:43;;;;;;;;;;;;;;;23.70;60.93;101655.97;5046600;28;19916;-86
2023/09/06 04:12:09;;;;;;;;;;;;;;;23.62;60.83;101654.06;5041850;28;20419;-86
2023/09/06 04:14:35;;;;;;;;;;;;;;;23.67;61.11;101660.38;5070183;28;20455;-84
2023/09/06 04:17:01;;;;;;;;;;;;;;;23.70;60.86;101663.97;5043235;28;20317;-85
2023/09/06 04:19:27;;;;;;;;;;;;;;;23.63;60.96;101664.75;5055569;28;19912;-85
2023/09/06 04:21:52;;;;;;;;;;;;;;;23.64;60.99;101670.97;5059955;28;19916;-85
2023/09/06 04:24:19;;;;;;;;;;;;;;;23.63;61.04;101666.53;5063324;28;20426;-83
2023/09/06 04:26:44;;;;;;;;;;;;;;;23.68;60.81;101681.72;5072314;28;19916;-84
2023/09/06 04:29:10;;;;;;;;;;;;;;;23.63;60.95;101678.09;5062412;28;19913;-84
2023/09/06 04:31:35;;;;;;;;;;;;;;;23.74;60.75;101683.56;5063248;28;20428;-85
2023/09/06 04:34:01;;;;;;;;;;;;;;;23.68;61.00;101687.03;5056540;28;20374;-86
2023/09/06 04:36:27;;;;;;;;;;;;;;;23.73;60.84;101689.81;5069205;28;19927;-85
2023/09/06 04:38:52;;;;;;;;;;;;;;;23.70;60.64;101692.41;5054143;28;19913;-84
2023/09/06 04:41:18;;;;;;;;;;;;;;;23.69;60.83;101694.19;5066389;28;19969;-83
2023/09/06 04:43:44;;;;;;;;;;;;;;;23.67;60.83;101685.25;5055542;28;19916;-84
2023/09/06 04:46:09;;;;;;;;;;;;;;;23.63;61.23;101678.09;5046059;28;20460;-84
2023/09/06 04:48:36;;;;;;;;;;;;;;;23.68;60.89;101678.16;5065261;28;19960;-85
2023/09/06 04:51:01;;;;;;;;;;;;;;;23.62;61.18;101673.66;5057612;28;19952;-85
2023/09/06 04:53:27;;;;;;;;;;;;;;;23.71;60.91;101672.88;5062305;28;20021;-85
2023/09/06 04:55:54;;;;;;;;;;;;;;;23.68;60.82;101671.03;5063990;28;19960;-85
2023/09/06 04:58:20;;;;;;;;;;;;;;;23.67;60.95;101671.94;5052197;28;19920;-85
2023/09/06 05:00:47;;;;;;;;;;;;;;;23.56;61.08;101669.09;5055063;28;21314;-85
2023/09/06 05:03:17;;;;;;;;;;;;;;;23.60;61.24;101674.47;5056200;28;20004;-86
2023/09/06 05:05:42;;;;;;;;;;;;;;;23.65;60.96;101672.78;5053006;28;19923;-86
2023/09/06 05:08:08;;;;;;;;;;;;;;;23.58;61.17;101674.47;5057742;28;19921;-86
2023/09/06 05:10:35;;;;;;;;;;;;;;;23.62;61.36;101680.72;5064986;28;19923;-85
2023/09/06 05:13:01;;;;;;;;;;;;;;;23.64;61.22;101686.97;5055018;28;19916;-86
2023/09/06 05:15:26;;;;;;;;;;;;;;;23.60;61.33;101690.47;5050487;28;20768;-86
2023/09/06 05:17:51;;;;;;;;;;;;;;;23.66;61.21;101687.91;5060228;28;20397;-84
2023/09/06 05:20:33;;;;;;;;;;;;;;;23.56;61.46;101682.44;5060409;28;19936;-86
2023/09/06 05:23:00;;;;;;;;;;;;;;;23.57;61.53;101700.22;5055437;28;19978;-86
2023/09/06 05:25:25;;;;;;;;;;;;;;;23.63;61.12;101682.53;5046965;28;19923;-86
2023/09/06 05:27:53;;;;;;;;;;;;;;;23.60;61.15;101682.47;5067753;28;19999;-87
2023/09/06 05:30:19;;;;;;;;;;;;;;;23.53;61.44;101689.50;5045795;28;20578;-89
2023/09/06 05:32:45;;;;;;;;;;;;;;;23.56;61.18;101678.88;5035740;28;20317;-86
2023/09/06 05:35:10;;;;;;;;;;;;;;;23.58;61.42;101682.47;5063163;28;20551;-87
2023/09/06 05:37:37;;;;;;;;;;;;;;;23.62;61.37;101678.06;5036287;28;19924;-86
2023/09/06 05:40:05;;;;;;;;;;;;;;;23.60;61.36;101679.81;5054254;28;20362;-87
2023/09/06 05:42:31;;;;;;;;;;;;;;;23.55;61.57;101685.97;5063482;28;19923;-86
2023/09/06 05:44:56;;;;;;;;;;;;;;;23.61;61.34;101703.84;5048896;28;19916;-86
2023/09/06 05:47:22;;;;;;;;;;;;;;;23.56;61.40;101698.44;5060611;28;19965;-86
2023/09/06 05:49:51;;;;;;;;;;;;;;;23.58;61.32;101691.38;5044269;28;20919;-87
2023/09/06 05:52:16;;;;;;;;;;;;;;;23.61;61.38;101694.94;5035389;28;19924;-86
2023/09/06 05:54:42;;;;;;;;;;;;;;;23.58;61.25;101703.81;5047720;28;19923;-87
2023/09/06 05:57:07;;;;;;;;;;;;;;;23.49;61.77;101709.88;5065958;28;20373;-87
2023/09/06 05:59:33;;;;;;;;;;;;;;;23.54;61.58;101710.84;5052018;28;19943;-86
2023/09/06 06:01:58;;;;;;;;;;;;;;;23.55;61.82;101709.97;5063482;28;19924;-86
2023/09/06 06:04:23;;;;;;;;;;;;;;;23.54;61.54;101710.84;5066540;28;20007;-85
2023/09/06 06:06:50;;;;;;;;;;;;;;;23.58;61.70;101718.03;5065469;28;20392;-86
2023/09/06 06:09:15;;;;;;;;;;;;;;;23.59;61.42;101716.25;5073240;28;19923;-85
2023/09/06 06:11:41;;;;;;;;;;;;;;;23.52;61.64;101720.59;5062987;28;19924;-85
2023/09/06 06:14:07;;;;;;;;;;;;;;;23.55;61.91;101725.06;5064858;28;20015;-84
2023/09/06 06:16:32;;;;;;;;;;;;;;;23.53;62.44;101716.16;5066573;28;19970;-86
2023/09/06 06:18:57;;;;;;;;;;;;;;;23.58;61.75;101730.47;5061710;28;19949;-83
2023/09/06 06:21:24;;;;;;;;;;;;;;;23.60;61.70;101723.41;5066525;28;19924;-87
2023/09/06 06:23:51;;;;;;;;;;;;;;;23.64;61.51;101726.97;5073287;28;19916;-84
2023/09/06 06:26:19;;;;;;;;;;;;;;;23.70;61.50;101729.75;5070064;28;20483;-84
2023/09/06 06:28:45;;;;;;;;;;;;;;;23.67;61.74;101743.06;5059817;28;20605;-87
2023/09/06 06:31:11;;;;;;;;;;;;;;;23.72;61.17;101739.56;5077619;28;20007;-84
2023/09/06 06:34:18;;;;;;;;;;;;;;;23.69;61.37;101735.97;5072583;28;20020;-85
2023/09/06 06:36:45;;;;;;;;;;;;;;;23.74;61.35;101737.81;5061308;28;19923;-85
2023/09/06 06:39:11;;;;;;;;;;;;;;;23.71;61.48;101739.56;5048107;28;19931;-84
2023/09/06 06:41:36;;;;;;;;;;;;;;;23.74;61.36;101735.16;5061726;28;19916;-83
2023/09/06 06:44:02;;;;;;;;;;;;;;;23.73;61.41;101748.47;5062708;28;20441;-84
2023/09/06 06:46:28;;;;;;;;;;;;;;;23.72;61.61;101757.34;5070806;28;19916;-83
2023/09/06 06:48:54;;;;;;;;;;;;;;;23.64;61.60;101749.22;5072711;28;19927;-82
2023/09/06 06:51:20;;;;;;;;;;;;;;;23.59;62.16;101748.25;5041512;28;19917;-84
2023/09/06 06:53:46;;;;;;;;;;;;;;;23.46;63.34;101765.81;5062320;28;20605;-83
2023/09/06 06:56:12;;;;;;;;;;;;;;;23.51;63.13;101763.22;5061506;28;19920;-83
2023/09/06 06:58:38;;;;;;;;;;;;;;;23.49;62.75;101765.84;5061190;28;19946;-83
2023/09/06 07:01:03;;;;;;;;;;;;;;;23.44;62.69;101772.00;5044391;28;19920;-84
2023/09/06 07:03:29;;;;;;;;;;;;;;;23.51;63.85;101774.78;5055549;28;20458;-83
2023/09/06 07:05:55;;;;;;;;;;;;;;;23.57;63.14;101763.31;5058179;28;19913;-83
2023/09/06 07:08:23;;;;;;;;;;;;;;;23.47;64.34;101753.38;5050927;28;20369;-83
2023/09/06 07:10:51;;;;;;;;;;;;;;;23.60;62.95;101757.13;5051603;28;19917;-83
2023/09/06 07:13:16;;;;;;;;;;;;;;;23.56;63.68;101764.22;5054100;28;19974;-84
2023/09/06 07:15:42;;;;;;;;;;;;;;;23.64;62.79;101766.97;5053172;28;19939;-83
2023/09/06 07:18:08;;;;;;;;;;;;;;;23.55;64.30;101762.41;5053496;28;19918;-83
2023/09/06 07:20:34;;;;;;;;;;;;;;;23.64;63.59;101772.31;5040049;28;19923;-84
2023/09/06 07:23:00;;;;;;;;;;;;;;;23.67;63.05;101775.06;5036276;28;19914;-85
2023/09/06 07:25:27;;;;;;;;;;;;;;;23.61;63.90;101772.28;5044869;28;19995;-84
2023/09/06 07:27:57;;;;;;;;;;;;;;;23.72;63.01;101784.00;5035961;28;19920;-83
2023/09/06 07:30:23;;;;;;;;;;;;;;;23.76;62.98;101784.09;5036047;28;19920;-84
2023/09/06 07:32:48;;;;;;;;;;;;;;;23.76;63.73;101788.56;5036147;28;19920;-84
2023/09/06 07:35:14;;;;;;;;;;;;;;;23.73;63.43;101781.38;5071837;28;19913;-83
2023/09/06 07:37:41;;;;;;;;;;;;;;;23.79;63.24;101783.25;5048777;28;19917;-84
2023/09/06 07:40:08;;;;;;;;;;;;;;;23.81;63.23;101781.50;5062186;28;19917;-83
2023/09/06 07:42:36;;;;;;;;;;;;;;;23.72;64.16;101770.66;5071639;28;19913;-85
2023/09/06 07:45:02;;;;;;;;;;;;;;;23.75;63.46;101784.97;5068966;28;19930;-85
2023/09/06 07:47:27;;;;;;;;;;;;;;;23.72;63.90;101779.56;5053685;28;20503;-85
2023/09/06 07:49:53;;;;;;;;;;;;;;;23.66;64.40;101786.56;5053835;28;19921;-84
2023/09/06 07:52:19;;;;;;;;;;;;;;;23.76;63.71;101777.88;5035571;28;20401;-83
2023/09/06 07:54:44;;;;;;;;;;;;;;;23.73;64.28;101776.03;5060235;28;19948;-84
2023/09/06 07:57:10;;;;;;;;;;;;;;;23.85;63.54;101786.03;5061555;28;19983;-83
2023/09/06 07:59:35;;;;;;;;;;;;;;;23.81;63.71;101777.94;5039414;28;20039;-83
2023/09/06 08:02:00;;;;;;;;;;;;;;;23.75;65.52;101776.97;5073696;28;19956;-85
2023/09/06 08:04:26;;;;;;;;;;;;;;;23.79;65.52;101780.59;5060607;28;20671;-85
2023/09/06 08:06:51;;;;;;;;;;;;;;;23.78;65.08;101779.69;5068215;28;20432;-85
2023/09/06 08:09:17;;;;;;;;;;;;;;;23.84;64.76;101772.69;5039558;28;20356;-84
2023/09/06 08:11:42;;;;;;;;;;;;;;;23.81;65.50;101776.19;5053350;28;20243;-88
2023/09/06 08:14:08;;;;;;;;;;;;;;;23.84;65.31;101780.69;5039387;28;20328;-85
2023/09/06 08:16:33;;;;;;;;;;;;;;;23.82;65.05;101780.66;5056860;28;19923;-85
2023/09/06 08:18:58;;;;;;;;;;;;;;;23.93;64.96;101786.16;5085682;28;19954;-86
2023/09/06 08:21:24;;;;;;;;;;;;;;;23.92;64.12;101785.25;5068681;28;20542;-85
2023/09/06 08:23:49;;;;;;;;;;;;;;;23.89;65.09;101787.88;5059656;28;20365;-84
2023/09/06 08:26:15;;;;;;;;;;;;;;;23.85;65.19;101793.13;5060809;28;20271;-88
2023/09/06 08:28:40;;;;;;;;;;;;;;;23.92;64.97;101797.72;5048063;28;19931;-86
2023/09/06 08:31:06;;;;;;;;;;;;;;;23.89;64.94;101803.88;5042336;28;19916;-86
2023/09/06 08:33:32;;;;;;;;;;;;;;;23.95;64.75;101809.31;5054993;28;19971;-85
2023/09/06 08:36:00;;;;;;;;;;;;;;;23.89;64.63;101803.88;5058525;28;19924;-86
2023/09/06 08:38:26;;;;;;;;;;;;;;;23.91;64.63;101799.47;5063365;28;19921;-86
2023/09/06 08:40:51;;;;;;;;;;;;;;;23.87;66.08;101804.72;5037356;28;20055;-86
2023/09/06 08:43:18;;;;;;;;;;;;;;;23.88;64.92;101804.75;5064147;28;19913;-86
2023/09/06 08:45:44;;;;;;;;;;;;;;;23.93;65.11;101805.72;5054463;28;20375;-86
2023/09/06 08:48:09;;;;;;;;;;;;;;;23.92;65.38;101808.38;5055058;28;20004;-86
2023/09/06 08:50:35;;;;;;;;;;;;;;;23.97;64.79;101812.91;5059229;28;20542;-85
2023/09/06 08:53:00;;;;;;;;;;;;;;;23.92;65.22;101803.94;5065902;28;19936;-85
2023/09/06 08:55:26;;;;;;;;;;;;;;;23.97;64.75;101810.22;5060481;28;19913;-85
2023/09/06 08:57:51;;;;;;;;;;;;;;;23.97;66.04;101806.69;5044683;28;19924;-85
2023/09/06 09:00:17;;;;;;;;;;;;;;;23.98;65.91;101812.03;5060372;28;19958;-84
2023/09/06 09:02:43;;;;;;;;;;;;;;;23.97;65.67;101812.00;5023530;28;19920;-84
2023/09/06 09:05:09;;;;;;;;;;;;;;;23.97;65.01;101817.34;5050607;28;19962;-86
2023/09/06 09:07:34;;;;;;;;;;;;;;;23.99;65.45;101815.59;5047367;28;19916;-84
2023/09/06 09:10:09;;;;;;;;;;;;;;;24.01;65.66;101824.53;5068018;28;19982;-85
2023/09/06 09:12:35;;;;;;;;;;;;;;;23.97;66.18;101826.25;5067078;28;19949;-86
2023/09/06 09:15:02;;;;;;;;;;;;;;;23.96;65.81;101824.47;5070067;28;19916;-86
2023/09/06 09:17:28;;;;;;;;;;;;;;;23.95;65.89;101830.66;5060236;28;20332;-85
2023/09/06 09:19:54;;;;;;;;;;;;;;;23.98;65.82;101822.72;5052043;28;19913;-84
2023/09/06 09:22:23;;;;;;;;;;;;;;;23.96;66.18;101826.22;5053146;28;19936;-87
2023/09/06 09:24:49;;;;;;;;;;;;;;;24.00;65.96;101821.81;5050109;28;19928;-86
2023/09/06 09:27:18;;;;;;;;;;;;;;;24.01;66.01;101815.63;5061792;28;19912;-86
2023/09/06 09:29:44;;;;;;;;;;;;;;;24.03;66.15;101817.44;5058986;28;19917;-86
2023/09/06 09:32:11;;;;;;;;;;;;;;;24.03;66.03;101820.13;5054525;28;19943;-86
2023/09/06 09:34:36;;;;;;;;;;;;;;;24.02;66.31;101820.97;5060090;28;19917;-86
2023/09/06 09:37:02;;;;;;;;;;;;;;;24.00;67.81;101814.72;5074521;28;19919;-86
2023/09/06 09:39:28;;;;;;;;;;;;;;;23.93;67.45;101823.50;5056906;28;19922;-87
2023/09/06 09:41:57;;;;;;;;;;;;;;;23.99;66.89;101812.94;5065944;28;19925;-87
2023/09/06 09:44:22;;;;;;;;;;;;;;;23.99;67.35;101810.25;5041278;28;19996;-87
2023/09/06 09:46:48;;;;;;;;;;;;;;;24.07;66.70;101818.41;5052084;28;19944;-87
2023/09/06 09:49:13;;;;;;;;;;;;;;;24.04;66.84;101821.00;5045590;28;19970;-88
2023/09/06 09:51:39;;;;;;;;;;;;;;;24.07;67.31;101815.72;5051488;28;20721;-87
2023/09/06 09:54:05;;;;;;;;;;;;;;;24.00;66.90;101825.38;5057176;28;19921;-87
2023/09/06 09:56:31;;;;;;;;;;;;;;;23.99;67.24;101818.28;5080190;28;19916;-87
2023/09/06 09:58:57;;;;;;;;;;;;;;;24.04;67.56;101821.88;5052313;28;19916;-87
2023/09/06 10:01:22;;;;;;;;;;;;;;;23.99;68.34;101831.63;5048406;28;19924;-88
2023/09/06 10:03:49;;;;;;;;;;;;;;;23.95;68.09;101829.75;5053362;28;19916;-85
2023/09/06 10:06:16;;;;;;;;;;;;;;;24.03;66.80;101830.78;5055079;28;19939;-87
2023/09/06 10:08:41;;;;;;;;;;;;;;;24.15;66.66;101835.41;5059694;28;20052;-86
2023/09/06 10:11:07;;;;;;;;;;;;;;;24.09;67.36;101838.88;5054919;28;19978;-86
2023/09/06 10:13:33;;;;;;;;;;;;;;;24.04;67.02;101840.56;5068583;28;19924;-87
2023/09/06 10:15:59;;;;;;;;;;;;;;;24.06;68.14;101844.16;5047594;28;20294;-86
2023/09/06 10:18:24;;;;;;;;;;;;;;;24.01;67.87;101836.97;5064963;28;19947;-86
2023/09/06 10:20:50;;;;;;;;;;;;;;;24.06;67.79;101830.81;5062711;28;19947;-86
2023/09/06 10:23:17;;;;;;;;;;;;;;;24.05;67.96;101829.03;5057175;28;19916;-86
2023/09/06 10:25:45;;;;;;;;;;;;;;;24.00;68.87;101830.72;5068418;28;19963;-89
2023/09/06 10:28:12;;;;;;;;;;;;;;;24.04;67.86;101835.22;5042213;28;19952;-89
2023/09/06 10:30:44;;;;;;;;;;;;;;;23.95;68.53;101837.78;5060761;28;19913;-87
2023/09/06 10:33:28;;;;;;;;;;;;;;;24.13;67.33;101834.47;5052474;28;19924;-87
2023/09/06 10:35:57;;;;;;;;;;;;;;;24.03;67.32;101830.78;5063215;28;19920;-88
2023/09/06 10:38:22;;;;;;;;;;;;;;;24.13;67.88;101823.81;5047894;28;19922;-90
2023/09/06 10:40:49;;;;;;;;;;;;;;;24.09;67.58;101830.00;5050972;28;20004;-87
2023/09/06 10:43:18;;;;;;;;;;;;;;;24.10;67.42;101827.31;5067342;28;19923;-89
2023/09/06 10:45:56;;;;;;;;;;;;;;;24.12;68.50;101835.38;5052886;28;19935;-88
2023/09/06 10:48:22;;;;;;;;;;;;;;;24.18;67.89;101833.69;5042570;28;19933;-89
2023/09/06 10:51:03;;;;;;;;;;;;;;;24.18;67.91;101839.03;5034247;28;19943;-88
2023/09/06 10:53:30;;;;;;;;;;;;;;;24.08;67.35;101844.19;5026243;28;19971;-89
2023/09/06 10:55:56;;;;;;;;;;;;;;;24.12;68.00;101838.03;5035670;28;19932;-88
2023/09/06 10:58:23;;;;;;;;;;;;;;;24.14;68.92;101838.94;5037653;28;19928;-86
2023/09/06 11:01:08;;;;;;;;;;;;;;;24.18;68.05;101831.00;5048211;28;19924;-89
2023/09/06 11:03:34;;;;;;;;;;;;;;;24.18;68.52;101825.69;5025253;28;19913;-90
2023/09/06 11:06:04;;;;;;;;;;;;;;;24.15;67.33;101816.72;5019960;28;19924;-88
2023/09/06 11:08:30;;;;;;;;;;;;;;;24.10;68.30;101816.66;5042025;28;19921;-86
2023/09/06 11:11:14;;;;;;;;;;;;;;;24.18;67.72;101806.09;5030401;28;19923;-86
2023/09/06 11:13:40;;;;;;;;;;;;;;;24.18;68.57;101808.75;5017637;28;20041;-87
2023/09/06 11:16:10;;;;;;;;;;;;;;;24.15;68.82;101806.03;5018761;28;19914;-88
2023/09/06 11:18:50;;;;;;;;;;;;;;;24.18;68.55;101798.09;5016377;28;19993;-88
2023/09/06 11:21:19;;;;;;;;;;;;;;;24.18;67.91;101792.75;5032770;28;19917;-90
2023/09/06 11:23:46;;;;;;;;;;;;;;;24.20;67.61;101800.78;5051017;28;20908;-90
2023/09/06 11:26:12;;;;;;;;;;;;;;;24.18;67.87;101798.09;5037736;28;19917;-88
2023/09/06 11:28:38;;;;;;;;;;;;;;;24.14;67.62;101804.25;5048243;28;19917;-88
2023/09/06 11:31:05;;;;;;;;;;;;;;;24.18;67.26;101793.63;5029903;28;19924;-89
2023/09/06 11:33:31;;;;;;;;;;;;;;;24.30;66.56;101800.94;5027733;28;20012;-88
2023/09/06 11:35:58;;;;;;;;;;;;;;;24.26;67.74;101800.88;5035679;28;19924;-86
2023/09/06 11:38:30;;;;;;;;;;;;;;;24.41;67.46;101794.84;5029456;28;19925;-86
2023/09/06 11:40:57;;;;;;;;;;;;;;;24.36;66.76;101801.03;5020828;28;20043;-87
2023/09/06 11:43:24;;;;;;;;;;;;;;;24.41;66.84;101794.84;5030625;28;20303;-86
2023/09/06 11:45:54;;;;;;;;;;;;;;;24.48;66.67;101800.28;5036511;28;19921;-88
2023/09/06 11:48:29;;;;;;;;;;;;;;;24.58;66.30;101790.66;5034739;28;19925;-88
2023/09/06 11:51:03;;;;;;;;;;;;;;;24.58;65.96;101793.31;5064130;28;19927;-88
2023/09/06 11:53:29;;;;;;;;;;;;;;;24.62;65.62;101784.47;5078897;28;19924;-88
2023/09/06 11:55:59;;;;;;;;;;;;;;;24.58;65.41;101786.19;5073199;28;20003;-90
2023/09/06 12:01:26;;;;;;;;;;;;;;;24.55;65.79;101775.50;5037391;28;19920;-88
2023/09/06 12:04:02;;;;;;;;;;;;;;;24.54;65.61;101775.47;5075263;28;19951;-88
2023/09/06 12:06:29;;;;;;;;;;;;;;;24.62;65.29;101772.88;5068459;28;19940;-88
2023/09/06 12:08:55;;;;;;;;;;;;;;;24.66;65.14;101769.34;5058543;28;20012;-87
2023/09/06 12:11:23;;;;;;;;;;;;;;;24.64;65.29;101764.03;5051372;28;19920;-87
2023/09/06 12:13:49;;;;;;;;;;;;;;;24.67;65.13;101766.72;5035726;28;20012;-88
2023/09/06 12:16:16;;;;;;;;;;;;;;;24.65;64.80;101765.81;5041434;28;19963;-87
2023/09/06 12:18:41;;;;;;;;;;;;;;;24.64;64.90;101758.69;5056787;28;20404;-87
2023/09/06 12:21:07;;;;;;;;;;;;;;;24.75;64.61;101759.69;5056034;28;19920;-87
2023/09/06 12:23:33;;;;;;;;;;;;;;;24.73;64.80;101758.78;5050977;28;19996;-87
2023/09/06 12:25:59;;;;;;;;;;;;;;;24.77;64.53;101757.94;5074648;28;19917;-86
2023/09/06 12:28:24;;;;;;;;;;;;;;;24.75;64.46;101764.16;5045678;28;20002;-87
2023/09/06 12:30:58;;;;;;;;;;;;;;;24.66;64.33;101774.69;5076353;28;20429;-86
2023/09/06 12:33:24;;;;;;;;;;;;;;;24.80;64.46;101762.41;5051954;28;20398;-86
2023/09/06 12:36:05;;;;;;;;;;;;;;;24.68;64.75;101773.88;5052998;28;19921;-87
2023/09/06 12:38:31;;;;;;;;;;;;;;;24.59;64.92;101760.38;5046080;28;19921;-86
2023/09/06 12:40:57;;;;;;;;;;;;;;;24.62;64.78;101760.44;5082220;28;19917;-87